FAD184 OEDF-OERK
Flight info
| Callsign | FAD184 |
|---|---|
| Flight time | 0h 44m |
| Altitude | 20000 |
| Route | EMUSA2E/34L EMUSA Q212 KIA |
| Aircraft | A20N/M-SDE2E3FGHIRWXY/LB1 |
Departure
| Time | 2026-04-15 15:17 |
|---|---|
| Airport | King Fahd International Airport (OEDF) |
Arrival
| Time | 2026-04-15 16:02 |
|---|---|
| Airport | King Khalid International Airport (OERK) |
| Time | Latitude | Longitude | Altitude | Speed | Heading |
|---|---|---|---|---|---|
| 2026-04-15 14:54 | 26.47033 | 49.79440 | 71 ft | 0 kts | 66° |
| 2026-04-15 15:09 | 26.47028 | 49.79425 | 62 ft | 3 kts | 66° |
| 2026-04-15 15:09 | 26.47020 | 49.79406 | 60 ft | 3 kts | 66° |
| 2026-04-15 15:09 | 26.47013 | 49.79387 | 60 ft | 3 kts | 66° |
| 2026-04-15 15:10 | 26.47005 | 49.79368 | 63 ft | 3 kts | 71° |
| 2026-04-15 15:10 | 26.47004 | 49.79346 | 63 ft | 3 kts | 113° |
| 2026-04-15 15:10 | 26.47015 | 49.79330 | 60 ft | 3 kts | 153° |
| 2026-04-15 15:10 | 26.47016 | 49.79330 | 60 ft | 0 kts | 156° |
| 2026-04-15 15:12 | 26.47014 | 49.79330 | 60 ft | 0 kts | 156° |
| 2026-04-15 15:12 | 26.47012 | 49.79332 | 65 ft | 0 kts | 156° |
| 2026-04-15 15:12 | 26.46991 | 49.79342 | 61 ft | 5 kts | 156° |
| 2026-04-15 15:13 | 26.46960 | 49.79357 | 67 ft | 5 kts | 156° |
| 2026-04-15 15:13 | 26.46924 | 49.79380 | 67 ft | 9 kts | 151° |
| 2026-04-15 15:13 | 26.46845 | 49.79419 | 67 ft | 15 kts | 162° |
| 2026-04-15 15:13 | 26.46724 | 49.79456 | 63 ft | 22 kts | 164° |
| 2026-04-15 15:14 | 26.46563 | 49.79493 | 63 ft | 21 kts | 179° |
| 2026-04-15 15:14 | 26.46477 | 49.79466 | 67 ft | 14 kts | 221° |
| 2026-04-15 15:14 | 26.46440 | 49.79357 | 68 ft | 15 kts | 258° |
| 2026-04-15 15:14 | 26.46417 | 49.79256 | 66 ft | 13 kts | 254° |
| 2026-04-15 15:15 | 26.46413 | 49.79239 | 68 ft | 0 kts | 254° |
| 2026-04-15 15:15 | 26.46413 | 49.79238 | 68 ft | 2 kts | 254° |
| 2026-04-15 15:15 | 26.46398 | 49.79176 | 69 ft | 11 kts | 256° |
| 2026-04-15 15:15 | 26.46407 | 49.79111 | 69 ft | 0 kts | 295° |
| 2026-04-15 15:16 | 26.46427 | 49.79086 | 69 ft | 0 kts | 310° |
| 2026-04-15 15:16 | 26.46450 | 49.79060 | 67 ft | 10 kts | 315° |
| 2026-04-15 15:16 | 26.46523 | 49.78980 | 61 ft | 18 kts | 314° |
| 2026-04-15 15:16 | 26.46612 | 49.78884 | 68 ft | 22 kts | 319° |
| 2026-04-15 15:17 | 26.46769 | 49.78786 | 60 ft | 33 kts | 341° |
| 2026-04-15 15:17 | 26.47186 | 49.78653 | 63 ft | 100 kts | 344° |
| 2026-04-15 15:17 | 26.48126 | 49.78369 | 178 ft | 166 kts | 345° |
| 2026-04-15 15:17 | 26.49249 | 49.78091 | 1138 ft | 164 kts | 348° |
| 2026-04-15 15:18 | 26.50392 | 49.77909 | 2131 ft | 168 kts | 351° |
| 2026-04-15 15:18 | 26.51560 | 49.77846 | 3103 ft | 169 kts | 355° |
| 2026-04-15 15:18 | 26.52783 | 49.77894 | 3865 ft | 180 kts | 358° |
| 2026-04-15 15:18 | 26.54088 | 49.77966 | 4525 ft | 196 kts | 358° |
| 2026-04-15 15:19 | 26.55467 | 49.78046 | 5305 ft | 200 kts | 359° |
| 2026-04-15 15:19 | 26.56875 | 49.78127 | 6052 ft | 206 kts | 359° |
| 2026-04-15 15:19 | 26.58345 | 49.78213 | 6794 ft | 212 kts | 0° |
| 2026-04-15 15:19 | 26.59821 | 49.78300 | 7543 ft | 217 kts | 1° |
| 2026-04-15 15:20 | 26.61342 | 49.78314 | 8344 ft | 220 kts | 352° |
| 2026-04-15 15:20 | 26.62848 | 49.77880 | 9111 ft | 226 kts | 335° |
| 2026-04-15 15:20 | 26.64100 | 49.76809 | 9879 ft | 236 kts | 310° |
| 2026-04-15 15:20 | 26.64749 | 49.75113 | 10573 ft | 246 kts | 278° |
| 2026-04-15 15:21 | 26.64566 | 49.73183 | 11359 ft | 252 kts | 258° |
| 2026-04-15 15:21 | 26.63953 | 49.71314 | 12144 ft | 256 kts | 248° |
| 2026-04-15 15:21 | 26.63146 | 49.69548 | 12919 ft | 259 kts | 244° |
| 2026-04-15 15:21 | 26.62248 | 49.67794 | 13667 ft | 262 kts | 243° |
| 2026-04-15 15:22 | 26.61339 | 49.66039 | 14325 ft | 265 kts | 243° |
| 2026-04-15 15:22 | 26.60417 | 49.64206 | 14994 ft | 267 kts | 244° |
| 2026-04-15 15:22 | 26.59541 | 49.62391 | 15647 ft | 270 kts | 245° |
| 2026-04-15 15:22 | 26.58663 | 49.60510 | 16330 ft | 273 kts | 246° |
| 2026-04-15 15:23 | 26.57802 | 49.58624 | 17008 ft | 275 kts | 246° |
| 2026-04-15 15:23 | 26.56940 | 49.56716 | 17678 ft | 278 kts | 246° |
| 2026-04-15 15:23 | 26.56066 | 49.54769 | 18344 ft | 281 kts | 246° |
| 2026-04-15 15:23 | 26.55183 | 49.52806 | 18905 ft | 284 kts | 247° |
| 2026-04-15 15:24 | 26.54281 | 49.50803 | 19482 ft | 288 kts | 247° |
| 2026-04-15 15:24 | 26.53366 | 49.48771 | 19885 ft | 300 kts | 247° |
| 2026-04-15 15:24 | 26.52405 | 49.46633 | 20006 ft | 322 kts | 247° |
| 2026-04-15 15:24 | 26.51354 | 49.44292 | 20015 ft | 347 kts | 246° |
| 2026-04-15 15:25 | 26.50232 | 49.41803 | 20012 ft | 371 kts | 246° |
| 2026-04-15 15:25 | 26.49044 | 49.39177 | 20010 ft | 391 kts | 246° |
| 2026-04-15 15:25 | 26.48127 | 49.37160 | 20009 ft | 396 kts | 246° |
| 2026-04-15 15:25 | 26.46865 | 49.34397 | 20007 ft | 398 kts | 246° |
| 2026-04-15 15:26 | 26.45614 | 49.31661 | 20008 ft | 398 kts | 246° |
| 2026-04-15 15:26 | 26.44351 | 49.28897 | 20008 ft | 398 kts | 246° |
| 2026-04-15 15:26 | 26.43103 | 49.26165 | 20006 ft | 398 kts | 246° |
| 2026-04-15 15:26 | 26.42271 | 49.24340 | 20010 ft | 398 kts | 246° |
| 2026-04-15 15:27 | 26.40598 | 49.20672 | 20010 ft | 398 kts | 246° |
| 2026-04-15 15:27 | 26.39752 | 49.18817 | 20010 ft | 398 kts | 246° |
| 2026-04-15 15:27 | 26.38500 | 49.16071 | 20008 ft | 398 kts | 246° |
| 2026-04-15 15:27 | 26.37241 | 49.13310 | 20009 ft | 397 kts | 246° |
| 2026-04-15 15:28 | 26.35993 | 49.10577 | 20011 ft | 397 kts | 246° |
| 2026-04-15 15:28 | 26.34734 | 49.07820 | 20014 ft | 397 kts | 246° |
| 2026-04-15 15:28 | 26.33684 | 49.05522 | 20013 ft | 397 kts | 245° |
| 2026-04-15 15:28 | 26.32538 | 49.03017 | 20013 ft | 397 kts | 245° |
| 2026-04-15 15:29 | 26.31282 | 49.00273 | 20015 ft | 397 kts | 245° |
| 2026-04-15 15:29 | 26.30012 | 48.97501 | 20014 ft | 397 kts | 245° |
| 2026-04-15 15:29 | 26.28773 | 48.94797 | 20017 ft | 397 kts | 245° |
| 2026-04-15 15:29 | 26.27505 | 48.92031 | 20022 ft | 397 kts | 245° |
| 2026-04-15 15:30 | 26.26244 | 48.89284 | 20020 ft | 397 kts | 245° |
| 2026-04-15 15:30 | 26.24998 | 48.86570 | 20019 ft | 397 kts | 245° |
| 2026-04-15 15:30 | 26.23749 | 48.83852 | 20021 ft | 397 kts | 245° |
| 2026-04-15 15:30 | 26.22488 | 48.81110 | 20022 ft | 397 kts | 245° |
| 2026-04-15 15:31 | 26.21220 | 48.78354 | 20023 ft | 397 kts | 245° |
| 2026-04-15 15:31 | 26.19967 | 48.75629 | 20027 ft | 397 kts | 245° |
| 2026-04-15 15:31 | 26.18875 | 48.72823 | 20027 ft | 394 kts | 254° |
| 2026-04-15 15:31 | 26.18175 | 48.69887 | 20026 ft | 392 kts | 260° |
| 2026-04-15 15:32 | 26.17655 | 48.66931 | 20031 ft | 391 kts | 263° |
| 2026-04-15 15:32 | 26.17222 | 48.63903 | 20029 ft | 391 kts | 264° |
| 2026-04-15 15:32 | 26.16853 | 48.60982 | 20031 ft | 391 kts | 265° |
| 2026-04-15 15:32 | 26.16480 | 48.57883 | 20032 ft | 390 kts | 265° |
| 2026-04-15 15:33 | 26.16125 | 48.54927 | 20032 ft | 391 kts | 265° |
| 2026-04-15 15:33 | 26.15755 | 48.51907 | 20035 ft | 391 kts | 264° |
| 2026-04-15 15:33 | 26.15384 | 48.48937 | 20036 ft | 391 kts | 264° |
| 2026-04-15 15:33 | 26.15001 | 48.45923 | 20032 ft | 391 kts | 264° |
| 2026-04-15 15:34 | 26.14615 | 48.42923 | 20036 ft | 391 kts | 264° |
| 2026-04-15 15:34 | 26.14231 | 48.39960 | 20040 ft | 391 kts | 264° |
| 2026-04-15 15:34 | 26.13839 | 48.36949 | 20039 ft | 391 kts | 264° |
| 2026-04-15 15:34 | 26.13452 | 48.33983 | 20041 ft | 390 kts | 264° |
| 2026-04-15 15:35 | 26.13060 | 48.30976 | 20043 ft | 390 kts | 264° |
| 2026-04-15 15:35 | 26.12668 | 48.27973 | 20043 ft | 390 kts | 264° |
| 2026-04-15 15:35 | 26.12279 | 48.24997 | 20046 ft | 391 kts | 264° |
| 2026-04-15 15:35 | 26.11847 | 48.22004 | 20045 ft | 392 kts | 260° |
| 2026-04-15 15:36 | 26.11102 | 48.19107 | 20046 ft | 394 kts | 251° |
| 2026-04-15 15:36 | 26.09896 | 48.16342 | 20048 ft | 397 kts | 240° |
| 2026-04-15 15:36 | 26.08263 | 48.13845 | 20046 ft | 399 kts | 233° |
| 2026-04-15 15:36 | 26.06466 | 48.11521 | 20045 ft | 400 kts | 230° |
| 2026-04-15 15:37 | 26.04568 | 48.09265 | 19962 ft | 397 kts | 228° |
| 2026-04-15 15:37 | 26.02640 | 48.07062 | 19728 ft | 392 kts | 227° |
| 2026-04-15 15:37 | 26.00753 | 48.04930 | 19496 ft | 389 kts | 227° |
| 2026-04-15 15:37 | 25.98853 | 48.02774 | 19259 ft | 388 kts | 228° |
| 2026-04-15 15:38 | 25.96993 | 48.00645 | 19034 ft | 387 kts | 228° |
| 2026-04-15 15:38 | 25.95120 | 47.98483 | 18802 ft | 386 kts | 228° |
| 2026-04-15 15:38 | 25.93264 | 47.96329 | 18569 ft | 384 kts | 228° |
| 2026-04-15 15:38 | 25.91430 | 47.94194 | 18352 ft | 383 kts | 228° |
| 2026-04-15 15:39 | 25.89584 | 47.92042 | 18104 ft | 382 kts | 228° |
| 2026-04-15 15:39 | 25.87777 | 47.89936 | 17835 ft | 380 kts | 228° |
| 2026-04-15 15:39 | 25.85938 | 47.87794 | 17573 ft | 379 kts | 228° |
| 2026-04-15 15:39 | 25.84123 | 47.85681 | 17324 ft | 377 kts | 228° |
| 2026-04-15 15:40 | 25.82333 | 47.83600 | 17070 ft | 376 kts | 228° |
| 2026-04-15 15:40 | 25.80527 | 47.81501 | 16818 ft | 375 kts | 228° |
| 2026-04-15 15:40 | 25.78717 | 47.79399 | 16558 ft | 373 kts | 228° |
| 2026-04-15 15:40 | 25.76944 | 47.77342 | 16317 ft | 372 kts | 228° |
| 2026-04-15 15:41 | 25.75146 | 47.75256 | 16077 ft | 370 kts | 228° |
| 2026-04-15 15:41 | 25.73361 | 47.73186 | 15829 ft | 369 kts | 228° |
| 2026-04-15 15:41 | 25.71606 | 47.71151 | 15591 ft | 368 kts | 228° |
| 2026-04-15 15:41 | 25.69836 | 47.69100 | 15354 ft | 366 kts | 228° |
| 2026-04-15 15:42 | 25.68085 | 47.67074 | 15117 ft | 365 kts | 228° |
| 2026-04-15 15:42 | 25.66314 | 47.65023 | 14687 ft | 365 kts | 228° |
| 2026-04-15 15:42 | 25.64563 | 47.62995 | 13802 ft | 373 kts | 228° |
| 2026-04-15 15:42 | 25.62745 | 47.60890 | 12719 ft | 382 kts | 228° |
| 2026-04-15 15:43 | 25.60880 | 47.58733 | 11638 ft | 389 kts | 228° |
| 2026-04-15 15:43 | 25.59078 | 47.56540 | 10794 ft | 387 kts | 234° |
| 2026-04-15 15:43 | 25.57661 | 47.54064 | 10294 ft | 374 kts | 244° |
| 2026-04-15 15:43 | 25.56516 | 47.51541 | 10086 ft | 355 kts | 246° |
| 2026-04-15 15:44 | 25.55498 | 47.49162 | 10054 ft | 333 kts | 247° |
| 2026-04-15 15:44 | 25.54545 | 47.46894 | 10048 ft | 312 kts | 247° |
| 2026-04-15 15:44 | 25.53668 | 47.44791 | 10048 ft | 294 kts | 248° |
| 2026-04-15 15:44 | 25.52827 | 47.42764 | 10054 ft | 286 kts | 248° |
| 2026-04-15 15:45 | 25.51998 | 47.40755 | 10058 ft | 286 kts | 248° |
| 2026-04-15 15:45 | 25.51157 | 47.38714 | 10071 ft | 306 kts | 248° |
| 2026-04-15 15:45 | 25.50243 | 47.36494 | 10061 ft | 322 kts | 247° |
| 2026-04-15 15:45 | 25.49309 | 47.34236 | 10060 ft | 325 kts | 247° |
| 2026-04-15 15:46 | 25.48368 | 47.31964 | 10052 ft | 320 kts | 247° |
| 2026-04-15 15:46 | 25.47473 | 47.29811 | 10048 ft | 301 kts | 247° |
| 2026-04-15 15:46 | 25.46616 | 47.27748 | 10057 ft | 289 kts | 247° |
| 2026-04-15 15:46 | 25.45776 | 47.25722 | 10061 ft | 288 kts | 247° |
| 2026-04-15 15:47 | 25.44939 | 47.23698 | 10073 ft | 301 kts | 247° |
| 2026-04-15 15:47 | 25.44040 | 47.21523 | 10069 ft | 321 kts | 247° |
| 2026-04-15 15:47 | 25.43097 | 47.19246 | 10063 ft | 327 kts | 247° |
| 2026-04-15 15:47 | 25.42142 | 47.16949 | 10061 ft | 327 kts | 247° |
| 2026-04-15 15:48 | 25.41217 | 47.14729 | 10052 ft | 312 kts | 247° |
| 2026-04-15 15:48 | 25.40333 | 47.12609 | 10056 ft | 295 kts | 247° |
| 2026-04-15 15:48 | 25.39481 | 47.10563 | 10060 ft | 290 kts | 247° |
| 2026-04-15 15:48 | 25.38637 | 47.08532 | 10065 ft | 290 kts | 247° |
| 2026-04-15 15:49 | 25.37798 | 47.06514 | 10068 ft | 295 kts | 247° |
| 2026-04-15 15:49 | 25.36898 | 47.04346 | 10074 ft | 320 kts | 247° |
| 2026-04-15 15:49 | 25.35951 | 47.02069 | 10037 ft | 328 kts | 247° |
| 2026-04-15 15:49 | 25.35002 | 46.99795 | 9991 ft | 329 kts | 247° |
| 2026-04-15 15:50 | 25.34044 | 46.97501 | 9971 ft | 320 kts | 247° |
| 2026-04-15 15:50 | 25.33113 | 46.95336 | 9906 ft | 305 kts | 241° |
| 2026-04-15 15:50 | 25.31659 | 46.93716 | 9744 ft | 303 kts | 210° |
| 2026-04-15 15:50 | 25.29762 | 46.92714 | 9706 ft | 301 kts | 216° |
| 2026-04-15 15:51 | 25.28356 | 46.91035 | 9942 ft | 296 kts | 242° |
| 2026-04-15 15:51 | 25.27526 | 46.88987 | 9699 ft | 287 kts | 252° |
| 2026-04-15 15:51 | 25.26879 | 46.86922 | 9227 ft | 288 kts | 253° |
| 2026-04-15 15:51 | 25.26233 | 46.84822 | 8752 ft | 288 kts | 252° |
| 2026-04-15 15:52 | 25.25568 | 46.82731 | 8316 ft | 287 kts | 252° |
| 2026-04-15 15:52 | 25.24900 | 46.80678 | 7889 ft | 286 kts | 251° |
| 2026-04-15 15:52 | 25.24215 | 46.78610 | 7457 ft | 285 kts | 251° |
| 2026-04-15 15:52 | 25.23529 | 46.76555 | 7030 ft | 284 kts | 250° |
| 2026-04-15 15:53 | 25.22854 | 46.74544 | 6616 ft | 283 kts | 250° |
| 2026-04-15 15:53 | 25.22169 | 46.72511 | 6203 ft | 281 kts | 250° |
| 2026-04-15 15:53 | 25.21486 | 46.70486 | 5790 ft | 280 kts | 250° |
| 2026-04-15 15:53 | 25.20805 | 46.68471 | 5426 ft | 276 kts | 250° |
| 2026-04-15 15:54 | 25.20153 | 46.66546 | 5263 ft | 265 kts | 250° |
| 2026-04-15 15:54 | 25.19520 | 46.64674 | 5119 ft | 254 kts | 249° |
| 2026-04-15 15:54 | 25.18918 | 46.62895 | 4974 ft | 244 kts | 249° |
| 2026-04-15 15:54 | 25.18335 | 46.61175 | 4808 ft | 234 kts | 249° |
| 2026-04-15 15:55 | 25.17769 | 46.59506 | 4467 ft | 231 kts | 249° |
| 2026-04-15 15:55 | 25.17069 | 46.57936 | 4138 ft | 226 kts | 234° |
| 2026-04-15 15:55 | 25.15905 | 46.56843 | 3813 ft | 219 kts | 201° |
| 2026-04-15 15:55 | 25.14495 | 46.56664 | 3630 ft | 206 kts | 167° |
| 2026-04-15 15:56 | 25.13228 | 46.57215 | 3516 ft | 192 kts | 152° |
| 2026-04-15 15:56 | 25.12110 | 46.57910 | 3439 ft | 174 kts | 149° |
| 2026-04-15 15:56 | 25.11114 | 46.58565 | 3313 ft | 159 kts | 148° |
| 2026-04-15 15:56 | 25.10201 | 46.59163 | 3140 ft | 146 kts | 149° |
| 2026-04-15 15:57 | 25.09348 | 46.59709 | 2892 ft | 139 kts | 149° |
| 2026-04-15 15:57 | 25.08556 | 46.60197 | 2889 ft | 140 kts | 153° |
| 2026-04-15 15:57 | 25.07600 | 46.60785 | 3295 ft | 173 kts | 148° |
| 2026-04-15 15:57 | 25.06517 | 46.61523 | 3760 ft | 191 kts | 148° |
| 2026-04-15 15:58 | 25.05331 | 46.62316 | 4042 ft | 203 kts | 148° |
| 2026-04-15 15:58 | 25.04212 | 46.63057 | 3953 ft | 175 kts | 149° |
| 2026-04-15 15:58 | 25.03189 | 46.63701 | 3679 ft | 163 kts | 149° |
| 2026-04-15 15:58 | 25.02207 | 46.64296 | 3300 ft | 161 kts | 150° |
| 2026-04-15 15:59 | 25.01274 | 46.64889 | 3072 ft | 149 kts | 149° |
| 2026-04-15 15:59 | 25.00402 | 46.65426 | 2853 ft | 139 kts | 150° |
| 2026-04-15 15:59 | 24.99567 | 46.65933 | 2642 ft | 134 kts | 150° |
| 2026-04-15 15:59 | 24.98748 | 46.66439 | 2554 ft | 136 kts | 149° |
| 2026-04-15 16:00 | 24.97934 | 46.66971 | 2363 ft | 136 kts | 147° |
| 2026-04-15 16:00 | 24.97119 | 46.67489 | 2140 ft | 135 kts | 150° |
| 2026-04-15 16:00 | 24.96339 | 46.67973 | 2073 ft | 127 kts | 148° |
| 2026-04-15 16:00 | 24.95644 | 46.68405 | 2056 ft | 101 kts | 150° |
| 2026-04-15 16:01 | 24.95107 | 46.68731 | 2056 ft | 76 kts | 150° |
| 2026-04-15 16:01 | 24.94708 | 46.68985 | 2052 ft | 57 kts | 150° |
| 2026-04-15 16:01 | 24.94396 | 46.69188 | 2052 ft | 51 kts | 154° |
| 2026-04-15 16:01 | 24.94090 | 46.69378 | 2052 ft | 50 kts | 148° |
| 2026-04-15 16:02 | 24.94006 | 46.69580 | 2050 ft | 21 kts | 56° |
| 2026-04-15 16:02 | 24.94099 | 46.69702 | 2050 ft | 20 kts | 14° |
| 2026-04-15 16:02 | 24.94220 | 46.69644 | 2050 ft | 21 kts | 323° |
| 2026-04-15 16:02 | 24.94356 | 46.69563 | 2051 ft | 24 kts | 329° |
| 2026-04-15 16:03 | 24.94511 | 46.69527 | 2051 ft | 24 kts | 47° |
| 2026-04-15 16:03 | 24.94603 | 46.69697 | 2051 ft | 28 kts | 60° |
| 2026-04-15 16:03 | 24.94707 | 46.69892 | 2049 ft | 32 kts | 60° |
| 2026-04-15 16:03 | 24.94822 | 46.70116 | 2047 ft | 35 kts | 61° |
| 2026-04-15 16:04 | 24.94948 | 46.70358 | 2047 ft | 38 kts | 61° |
| 2026-04-15 16:04 | 24.95086 | 46.70620 | 2046 ft | 41 kts | 60° |
| 2026-04-15 16:04 | 24.95224 | 46.70883 | 2037 ft | 24 kts | 60° |
| 2026-04-15 16:04 | 24.95280 | 46.70987 | 2038 ft | 18 kts | 58° |
| 2026-04-15 16:05 | 24.95350 | 46.71017 | 2040 ft | 9 kts | 332° |
| 2026-04-15 16:05 | 24.95422 | 46.70974 | 2041 ft | 15 kts | 332° |
| 2026-04-15 16:05 | 24.95529 | 46.70907 | 2038 ft | 20 kts | 330° |
| 2026-04-15 16:05 | 24.95665 | 46.70821 | 2046 ft | 25 kts | 330° |
| 2026-04-15 16:06 | 24.95810 | 46.70728 | 2040 ft | 24 kts | 330° |
| 2026-04-15 16:06 | 24.95962 | 46.70631 | 2043 ft | 25 kts | 330° |
| 2026-04-15 16:06 | 24.96086 | 46.70551 | 2045 ft | 22 kts | 329° |
| 2026-04-15 16:06 | 24.96227 | 46.70459 | 2045 ft | 24 kts | 329° |
| 2026-04-15 16:07 | 24.96344 | 46.70357 | 2043 ft | 15 kts | 276° |
| 2026-04-15 16:07 | 24.96310 | 46.70308 | 2046 ft | 6 kts | 179° |
| 2026-04-15 16:07 | 24.96223 | 46.70299 | 2045 ft | 1 kts | 202° |
| 2026-04-15 16:08 | 24.96221 | 46.70298 | 2045 ft | 0 kts | 202° |